Time;durP1;ratioP1;P1;durP2;ratioP2;P2;SDS_P1;SDS_P2;PMS_P1;PMS_P2;Temp;Humidity;BMP_temperature;BMP_pressure;BME280_temperature;BME280_humidity;BME280_pressure;Samples;Min_cycle;Max_cycle;Signal;HPM_P1;HPM_P2
2021/08/03 00:00:42;;;;;;;26.35;5.25;;;;;;;;;;5029942;28;20159;-38
2021/08/03 00:03:10;;;;;;;31.63;4.63;;;;;;;;;;5029939;28;20088;-38
2021/08/03 00:05:39;;;;;;;39.17;4.78;;;;;;;;;;5027525;28;20017;-39
2021/08/03 00:08:25;;;;;;;37.13;6.32;;;;;;;;;;5033392;28;20037;-41
2021/08/03 00:10:52;;;;;;;26.15;5.00;;;;;;;;;;5028560;28;20025;-41
2021/08/03 00:13:19;;;;;;;29.25;5.40;;;;;;;;;;5029597;28;20032;-44
2021/08/03 00:15:51;;;;;;;36.88;5.28;;;;;;;;;;5027018;28;20068;-37
2021/08/03 00:18:18;;;;;;;29.63;4.83;;;;;;;;;;5033868;28;20013;-38
2021/08/03 00:20:45;;;;;;;21.95;4.20;;;;;;;;;;5029481;28;20110;-39
2021/08/03 00:23:12;;;;;;;27.45;5.30;;;;;;;;;;5028603;28;20029;-40
2021/08/03 00:25:40;;;;;;;32.83;5.05;;;;;;;;;;5030718;28;20041;-41
2021/08/03 00:28:07;;;;;;;33.00;5.10;;;;;;;;;;5032144;28;20075;-39
2021/08/03 00:30:34;;;;;;;36.40;5.85;;;;;;;;;;5015850;28;20496;-39
2021/08/03 00:33:02;;;;;;;32.20;6.03;;;;;;;;;;5026366;28;20125;-39
2021/08/03 00:35:30;;;;;;;29.73;6.78;;;;;;;;;;5023930;28;20056;-39
2021/08/03 00:37:57;;;;;;;33.70;7.53;;;;;;;;;;5034431;28;20584;-39
2021/08/03 00:40:25;;;;;;;37.08;8.65;;;;;;;;;;5030871;28;20087;-39
2021/08/03 00:42:53;;;;;;;43.38;10.02;;;;;;;;;;5030290;28;20045;-38
2021/08/03 00:45:21;;;;;;;43.60;10.80;;;;;;;;;;5024635;28;20033;-39
2021/08/03 00:47:49;;;;;;;33.60;10.82;;;;;;;;;;5029439;28;20012;-42
2021/08/03 00:50:16;;;;;;;35.15;10.88;;;;;;;;;;5026985;28;20033;-39
2021/08/03 00:52:44;;;;;;;43.85;11.60;;;;;;;;;;5012554;28;20033;-40
2021/08/03 00:55:12;;;;;;;35.22;10.88;;;;;;;;;;5027253;28;20543;-39
2021/08/03 00:57:41;;;;;;;41.83;11.77;;;;;;;;;;5026829;28;20039;-39
2021/08/03 01:00:08;;;;;;;46.42;12.02;;;;;;;;;;5027830;28;20643;-40
2021/08/03 01:02:36;;;;;;;39.65;11.20;;;;;;;;;;5191944;22;20056;-40
2021/08/03 01:05:03;;;;;;;43.28;12.95;;;;;;;;;;5038867;28;20061;-40
2021/08/03 01:07:33;;;;;;;40.33;10.75;;;;;;;;;;5038552;28;20472;-42
2021/08/03 01:10:18;;;;;;;43.58;11.07;;;;;;;;;;5046480;28;20026;-39
2021/08/03 01:12:54;;;;;;;43.20;10.60;;;;;;;;;;5039566;28;20036;-40
2021/08/03 01:15:24;;;;;;;47.25;10.68;;;;;;;;;;5044089;28;20064;-40
2021/08/03 01:17:51;;;;;;;39.10;9.77;;;;;;;;;;5042477;28;20028;-40
2021/08/03 01:20:24;;;;;;;35.60;8.73;;;;;;;;;;5034278;28;20029;-40
2021/08/03 01:22:54;;;;;;;42.05;9.82;;;;;;;;;;5040945;28;20106;-39
2021/08/03 01:25:30;;;;;;;38.75;9.20;;;;;;;;;;5038563;28;20028;-39
2021/08/03 01:28:09;;;;;;;63.08;10.52;;;;;;;;;;5034779;28;20389;-38
2021/08/03 01:30:37;;;;;;;33.78;8.75;;;;;;;;;;5040482;28;20029;-39
2021/08/03 01:33:06;;;;;;;37.88;9.00;;;;;;;;;;5038902;28;20017;-40
2021/08/03 01:35:39;;;;;;;42.60;8.00;;;;;;;;;;5044167;28;20038;-40
2021/08/03 01:38:07;;;;;;;27.27;8.35;;;;;;;;;;5050161;28;20080;-40
2021/08/03 01:40:34;;;;;;;29.77;7.90;;;;;;;;;;5044960;28;20057;-40
2021/08/03 01:43:02;;;;;;;26.02;7.93;;;;;;;;;;5047185;28;20128;-40
2021/08/03 01:45:31;;;;;;;39.35;8.10;;;;;;;;;;5042953;28;20021;-40
2021/08/03 01:47:58;;;;;;;26.42;7.07;;;;;;;;;;5049967;28;20021;-41
2021/08/03 01:50:26;;;;;;;21.48;7.20;;;;;;;;;;5046551;28;20025;-40
2021/08/03 01:52:55;;;;;;;25.15;6.47;;;;;;;;;;5044733;28;20035;-43
2021/08/03 01:55:22;;;;;;;30.92;7.53;;;;;;;;;;5051292;28;20037;-40
2021/08/03 01:57:49;;;;;;;31.52;7.72;;;;;;;;;;5052337;28;20074;-41
2021/08/03 02:00:16;;;;;;;27.88;6.93;;;;;;;;;;5051907;28;20013;-42
2021/08/03 02:02:44;;;;;;;31.27;7.47;;;;;;;;;;5032310;28;20041;-43
2021/08/03 02:05:11;;;;;;;27.88;6.40;;;;;;;;;;5033074;28;20049;-40
2021/08/03 02:07:40;;;;;;;32.72;7.03;;;;;;;;;;5032733;28;20434;-39
2021/08/03 02:10:07;;;;;;;38.83;7.40;;;;;;;;;;5027232;28;20075;-41
2021/08/03 02:12:35;;;;;;;21.77;6.03;;;;;;;;;;5031996;28;20374;-40
2021/08/03 02:15:03;;;;;;;23.05;5.90;;;;;;;;;;5032488;28;20564;-40
2021/08/03 02:17:31;;;;;;;22.25;5.45;;;;;;;;;;5031996;28;20021;-39
2021/08/03 02:19:58;;;;;;;22.70;5.80;;;;;;;;;;5032848;28;20048;-40
2021/08/03 02:22:25;;;;;;;18.13;5.57;;;;;;;;;;5031448;28;20128;-40
2021/08/03 02:24:52;;;;;;;18.92;5.07;;;;;;;;;;5032365;28;20029;-40
2021/08/03 02:27:19;;;;;;;21.17;5.70;;;;;;;;;;5032024;28;20076;-39
2021/08/03 02:29:46;;;;;;;22.20;5.70;;;;;;;;;;5032284;28;20036;-41
2021/08/03 02:32:16;;;;;;;18.42;4.90;;;;;;;;;;5013801;28;20014;-40
2021/08/03 02:35:05;;;;;;;20.75;5.55;;;;;;;;;;5032054;28;20564;-40
2021/08/03 02:37:37;;;;;;;22.83;4.68;;;;;;;;;;5030014;28;20040;-41
2021/08/03 02:40:06;;;;;;;23.63;4.85;;;;;;;;;;5014804;28;20036;-40
2021/08/03 02:42:33;;;;;;;15.05;5.35;;;;;;;;;;5031744;28;20413;-41
2021/08/03 02:45:04;;;;;;;21.48;4.88;;;;;;;;;;5032602;28;20071;-40
2021/08/03 02:47:54;;;;;;;16.13;5.07;;;;;;;;;;5014451;28;20037;-41
2021/08/03 02:50:20;;;;;;;17.10;4.57;;;;;;;;;;5031901;28;20436;-40
2021/08/03 02:52:48;;;;;;;20.95;5.50;;;;;;;;;;5014030;28;20112;-41
2021/08/03 02:55:22;;;;;;;15.15;4.65;;;;;;;;;;5032347;28;20064;-41
2021/08/03 02:57:55;;;;;;;17.15;4.68;;;;;;;;;;5031877;28;20119;-40
2021/08/03 03:00:21;;;;;;;;;;;;;;;;;;5032825;28;20080;-41
2021/08/03 03:02:48;;;;;;;12.02;4.10;;;;;;;;;;5031155;28;19960;-41
2021/08/03 03:05:18;;;;;;;18.55;4.45;;;;;;;;;;5032336;28;20025;-43
2021/08/03 03:07:49;;;;;;;17.40;4.07;;;;;;;;;;5031639;28;20030;-41
2021/08/03 03:10:26;;;;;;;16.40;4.25;;;;;;;;;;5032210;28;20043;-42
2021/08/03 03:13:19;;;;;;;15.23;3.83;;;;;;;;;;5030952;28;20025;-40
2021/08/03 03:15:45;;;;;;;;;;;;;;;;;;5030169;28;20161;-40
2021/08/03 03:18:12;;;;;;;24.65;5.38;;;;;;;;;;5031402;28;19909;-40
2021/08/03 03:20:40;;;;;;;16.88;4.30;;;;;;;;;;5032006;28;20049;-41
2021/08/03 03:23:07;;;;;;;19.02;4.40;;;;;;;;;;5031312;28;20131;-41
2021/08/03 03:25:34;;;;;;;14.63;4.35;;;;;;;;;;5031959;28;20022;-40
2021/08/03 03:28:02;;;;;;;19.90;5.15;;;;;;;;;;5032058;28;20377;-41
2021/08/03 03:30:30;;;;;;;10.50;3.55;;;;;;;;;;5031624;28;20021;-40
2021/08/03 03:33:04;;;;;;;19.88;4.28;;;;;;;;;;5031573;28;20131;-41
2021/08/03 03:35:31;;;;;;;14.73;4.40;;;;;;;;;;5031388;28;20107;-41
2021/08/03 03:37:59;;;;;;;8.98;3.63;;;;;;;;;;5032000;28;20581;-40
2021/08/03 03:40:26;;;;;;;13.63;4.00;;;;;;;;;;5031393;28;20029;-40
2021/08/03 03:42:55;;;;;;;13.60;3.47;;;;;;;;;;5031707;28;20477;-40
2021/08/03 03:45:22;;;;;;;12.05;3.60;;;;;;;;;;5031180;28;20026;-41
2021/08/03 03:48:11;;;;;;;12.32;4.25;;;;;;;;;;5031993;28;20032;-40
2021/08/03 03:50:44;;;;;;;19.75;4.10;;;;;;;;;;5031328;28;20057;-39
2021/08/03 03:53:21;;;;;;;13.88;3.80;;;;;;;;;;5031445;28;20022;-40
2021/08/03 03:56:08;;;;;;;14.75;3.85;;;;;;;;;;5031144;28;20085;-40
2021/08/03 03:58:37;;;;;;;16.85;4.35;;;;;;;;;;5031487;28;20104;-40
2021/08/03 04:01:04;;;;;;;14.32;3.55;;;;;;;;;;5030994;28;20029;-41
2021/08/03 04:03:33;;;;;;;13.32;3.63;;;;;;;;;;5031557;28;20037;-40
2021/08/03 04:06:01;;;;;;;10.05;4.00;;;;;;;;;;5031136;28;20064;-41
2021/08/03 04:08:30;;;;;;;12.52;3.83;;;;;;;;;;5031327;28;20028;-40
2021/08/03 04:11:06;;;;;;;13.27;4.30;;;;;;;;;;5031237;28;20036;-40
2021/08/03 04:13:33;;;;;;;10.60;3.40;;;;;;;;;;5031558;28;20022;-40
2021/08/03 04:16:00;;;;;;;10.57;3.58;;;;;;;;;;5031029;28;20033;-40
2021/08/03 04:18:27;;;;;;;7.97;3.55;;;;;;;;;;5031376;28;20095;-41
2021/08/03 04:20:54;;;;;;;12.05;3.63;;;;;;;;;;5031105;28;20026;-39
2021/08/03 04:23:21;;;;;;;12.00;3.55;;;;;;;;;;5031396;28;20481;-40
2021/08/03 04:25:48;;;;;;;9.52;3.50;;;;;;;;;;5032867;28;20032;-40
2021/08/03 04:28:15;;;;;;;8.25;3.60;;;;;;;;;;5034537;28;20334;-40
2021/08/03 04:30:42;;;;;;;11.27;3.20;;;;;;;;;;5034880;28;20025;-41
2021/08/03 04:33:09;;;;;;;9.48;3.22;;;;;;;;;;5034629;28;20021;-40
2021/08/03 04:35:36;;;;;;;10.32;3.55;;;;;;;;;;5034675;28;20064;-40
2021/08/03 04:38:03;;;;;;;10.23;3.28;;;;;;;;;;5034385;28;20029;-40
2021/08/03 04:40:31;;;;;;;12.50;3.97;;;;;;;;;;5034738;28;20064;-40
2021/08/03 04:42:58;;;;;;;9.23;3.10;;;;;;;;;;5033994;28;20556;-40
2021/08/03 04:45:25;;;;;;;9.00;3.33;;;;;;;;;;5034144;28;20499;-40
2021/08/03 04:47:53;;;;;;;7.60;2.92;;;;;;;;;;5034219;28;20025;-40
2021/08/03 04:50:27;;;;;;;9.32;3.28;;;;;;;;;;5034892;28;20028;-40
2021/08/03 04:52:54;;;;;;;7.50;3.17;;;;;;;;;;5034226;28;20029;-40
2021/08/03 04:55:21;;;;;;;9.48;3.60;;;;;;;;;;5034134;28;20053;-41
2021/08/03 04:57:49;;;;;;;8.60;3.20;;;;;;;;;;5034255;28;20374;-40
2021/08/03 05:00:16;;;;;;;9.38;3.20;;;;;;;;;;5034432;28;20028;-39
2021/08/03 05:02:43;;;;;;;9.43;3.20;;;;;;;;;;5034178;28;20116;-40
2021/08/03 05:05:11;;;;;;;6.43;3.15;;;;;;;;;;5033668;28;20041;-40
2021/08/03 05:07:38;;;;;;;8.88;3.33;;;;;;;;;;5034389;28;20026;-40
2021/08/03 05:10:10;;;;;;;9.52;3.35;;;;;;;;;;5033894;28;20017;-41
2021/08/03 05:12:37;;;;;;;8.40;3.60;;;;;;;;;;5034137;28;20104;-40
2021/08/03 05:15:05;;;;;;;8.10;3.47;;;;;;;;;;5015969;28;20041;-40
2021/08/03 05:17:33;;;;;;;8.75;3.05;;;;;;;;;;5034336;28;20021;-40
2021/08/03 05:20:00;;;;;;;12.02;3.60;;;;;;;;;;5033784;28;20377;-40
2021/08/03 05:22:28;;;;;;;7.85;3.25;;;;;;;;;;5034154;28;20096;-39
2021/08/03 05:24:55;;;;;;;9.55;3.30;;;;;;;;;;5033484;28;20040;-40
2021/08/03 05:27:22;;;;;;;6.95;3.10;;;;;;;;;;5034203;28;20049;-40
2021/08/03 05:29:49;;;;;;;9.00;3.28;;;;;;;;;;5033479;28;20532;-41
2021/08/03 05:32:16;;;;;;;8.50;3.47;;;;;;;;;;5033944;28;20048;-40
2021/08/03 05:34:43;;;;;;;9.50;3.10;;;;;;;;;;5033057;28;20099;-40
2021/08/03 05:37:10;;;;;;;7.00;3.30;;;;;;;;;;5033553;28;20018;-40
2021/08/03 05:39:37;;;;;;;10.40;3.15;;;;;;;;;;5033414;28;20036;-39
2021/08/03 05:42:04;;;;;;;9.02;3.05;;;;;;;;;;5033769;28;20477;-40
2021/08/03 05:44:32;;;;;;;9.50;2.97;;;;;;;;;;5033768;28;20029;-40
2021/08/03 05:46:59;;;;;;;5.97;2.80;;;;;;;;;;5033001;28;20033;-40
2021/08/03 05:49:26;;;;;;;9.43;3.05;;;;;;;;;;5033537;28;20017;-40
2021/08/03 05:51:55;;;;;;;6.80;3.00;;;;;;;;;;5033285;28;20025;-40
2021/08/03 05:54:23;;;;;;;8.32;3.55;;;;;;;;;;5033561;28;20053;-40
2021/08/03 05:56:50;;;;;;;7.97;3.15;;;;;;;;;;5032949;28;20025;-39
2021/08/03 05:59:17;;;;;;;8.52;2.88;;;;;;;;;;5033572;28;20017;-40
2021/08/03 06:01:44;;;;;;;5.65;2.78;;;;;;;;;;5032831;28;20076;-40
2021/08/03 06:04:12;;;;;;;6.47;2.60;;;;;;;;;;5033277;28;20100;-40
2021/08/03 06:06:40;;;;;;;8.10;2.60;;;;;;;;;;5032472;28;20028;-40
2021/08/03 06:09:11;;;;;;;7.28;2.70;;;;;;;;;;5033257;28;20051;-40
2021/08/03 06:11:44;;;;;;;6.57;2.75;;;;;;;;;;5032709;28;20018;-40
2021/08/03 06:14:12;;;;;;;8.13;3.00;;;;;;;;;;5032954;28;20037;-39
2021/08/03 06:16:39;;;;;;;6.30;2.47;;;;;;;;;;5032233;28;20104;-41
2021/08/03 06:19:06;;;;;;;7.95;2.90;;;;;;;;;;5033255;28;20030;-40
2021/08/03 06:21:34;;;;;;;5.95;2.90;;;;;;;;;;5032405;28;20624;-40
2021/08/03 06:24:01;;;;;;;5.93;2.75;;;;;;;;;;5033116;28;20032;-41
2021/08/03 06:26:28;;;;;;;5.75;2.55;;;;;;;;;;5032184;28;20022;-39
2021/08/03 06:28:55;;;;;;;5.43;2.88;;;;;;;;;;5032768;28;20021;-41
2021/08/03 06:31:27;;;;;;;7.18;2.83;;;;;;;;;;5032763;28;20385;-41
2021/08/03 06:33:54;;;;;;;4.60;2.60;;;;;;;;;;5032311;28;20026;-41
2021/08/03 06:36:21;;;;;;;7.13;3.38;;;;;;;;;;4998439;28;20037;-40
2021/08/03 06:38:48;;;;;;;8.38;2.80;;;;;;;;;;5032091;28;20137;-40
2021/08/03 06:41:30;;;;;;;8.55;3.05;;;;;;;;;;5032548;28;20028;-40
2021/08/03 06:44:00;;;;;;;6.40;2.80;;;;;;;;;;5032171;28;20109;-40
2021/08/03 06:46:28;;;;;;;7.45;3.40;;;;;;;;;;5032294;28;20740;-40
2021/08/03 06:48:57;;;;;;;6.90;2.60;;;;;;;;;;5031210;28;20076;-41
2021/08/03 06:51:25;;;;;;;5.03;2.67;;;;;;;;;;5032393;28;20048;-41
2021/08/03 06:53:53;;;;;;;5.68;2.85;;;;;;;;;;5031992;28;20129;-41
2021/08/03 06:56:22;;;;;;;4.85;2.60;;;;;;;;;;5032085;28;20486;-40
2021/08/03 06:58:58;;;;;;;7.07;2.72;;;;;;;;;;5032034;28;20532;-41
2021/08/03 07:01:41;;;;;;;6.60;2.60;;;;;;;;;;5032127;28;20041;-41
2021/08/03 07:04:11;;;;;;;5.55;2.53;;;;;;;;;;5032066;28;20074;-40
2021/08/03 07:06:43;;;;;;;6.68;2.92;;;;;;;;;;5031989;28;20078;-41
2021/08/03 07:09:11;;;;;;;5.60;2.70;;;;;;;;;;5031419;28;20104;-40
2021/08/03 07:11:39;;;;;;;7.00;2.60;;;;;;;;;;5032136;28;20030;-41
2021/08/03 07:14:06;;;;;;;5.78;2.72;;;;;;;;;;5031584;28;20469;-41
2021/08/03 07:16:33;;;;;;;5.90;2.90;;;;;;;;;;5031718;28;20070;-39
2021/08/03 07:19:01;;;;;;;5.38;2.80;;;;;;;;;;5031690;28;20025;-39
2021/08/03 07:21:28;;;;;;;7.95;2.78;;;;;;;;;;5031938;28;20033;-39
2021/08/03 07:23:56;;;;;;;7.00;3.10;;;;;;;;;;5031530;28;20059;-40
2021/08/03 07:26:24;;;;;;;7.00;2.58;;;;;;;;;;5031687;28;20025;-40
2021/08/03 07:28:52;;;;;;;4.63;2.80;;;;;;;;;;5031865;28;20485;-40
2021/08/03 07:31:23;;;;;;;6.90;2.63;;;;;;;;;;5024959;28;20044;-41
2021/08/03 07:33:56;;;;;;;6.90;2.90;;;;;;;;;;5012314;28;20018;-40
2021/08/03 07:36:29;;;;;;;5.78;2.42;;;;;;;;;;5011792;28;20486;-39
2021/08/03 07:39:04;;;;;;;6.45;2.63;;;;;;;;;;5012105;28;20055;-40
2021/08/03 07:41:34;;;;;;;6.32;2.75;;;;;;;;;;5011503;28;20465;-40
2021/08/03 07:44:03;;;;;;;5.70;2.80;;;;;;;;;;5012168;28;20088;-40
2021/08/03 07:46:31;;;;;;;6.00;2.63;;;;;;;;;;5011588;28;20030;-40
2021/08/03 07:48:59;;;;;;;6.22;2.35;;;;;;;;;;5010507;28;20049;-40
2021/08/03 07:51:27;;;;;;;5.93;2.25;;;;;;;;;;5011463;28;20025;-41
2021/08/03 07:53:54;;;;;;;5.13;2.22;;;;;;;;;;5012217;28;20050;-40
2021/08/03 07:56:21;;;;;;;5.85;2.47;;;;;;;;;;5011215;28;20045;-40
2021/08/03 07:58:48;;;;;;;4.32;2.22;;;;;;;;;;5011842;28;20076;-39
2021/08/03 08:01:18;;;;;;;5.75;2.80;;;;;;;;;;5015082;28;20108;-40
2021/08/03 08:03:46;;;;;;;8.77;2.75;;;;;;;;;;5015776;28;20387;-39
2021/08/03 08:06:15;;;;;;;6.30;2.83;;;;;;;;;;5015265;28;20030;-40
2021/08/03 08:08:43;;;;;;;4.97;2.15;;;;;;;;;;5015453;28;20033;-40
2021/08/03 08:11:11;;;;;;;4.93;2.60;;;;;;;;;;5015640;28;20026;-40
2021/08/03 08:13:38;;;;;;;5.30;2.63;;;;;;;;;;5015196;28;20014;-40
2021/08/03 08:16:06;;;;;;;6.20;2.80;;;;;;;;;;5015039;28;20038;-39
2021/08/03 08:18:33;;;;;;;7.07;2.60;;;;;;;;;;5014938;28;20026;-40
2021/08/03 08:21:00;;;;;;;5.38;2.55;;;;;;;;;;5015400;28;20034;-40
2021/08/03 08:23:27;;;;;;;4.95;2.30;;;;;;;;;;5015017;28;20033;-40
2021/08/03 08:25:55;;;;;;;5.45;2.67;;;;;;;;;;5022952;28;20061;-40
2021/08/03 08:28:22;;;;;;;4.60;2.28;;;;;;;;;;5017648;28;20026;-40
2021/08/03 08:30:50;;;;;;;5.40;2.42;;;;;;;;;;5015336;28;20480;-40
2021/08/03 08:33:17;;;;;;;5.50;2.88;;;;;;;;;;5014852;28;20030;-39
2021/08/03 08:35:44;;;;;;;5.20;2.80;;;;;;;;;;5015191;28;20121;-39
2021/08/03 08:38:11;;;;;;;7.50;2.95;;;;;;;;;;5014534;28;20022;-40
2021/08/03 08:40:38;;;;;;;8.68;2.47;;;;;;;;;;5015178;28;20026;-39
2021/08/03 08:43:05;;;;;;;6.75;2.47;;;;;;;;;;5014824;28;20029;-39
2021/08/03 08:45:32;;;;;;;5.38;2.42;;;;;;;;;;5015183;28;20092;-39
2021/08/03 08:48:00;;;;;;;6.40;2.30;;;;;;;;;;5014472;28;20040;-40
2021/08/03 08:50:27;;;;;;;6.45;2.65;;;;;;;;;;5014924;28;20026;-40
2021/08/03 08:52:56;;;;;;;8.90;2.58;;;;;;;;;;5014835;28;20064;-39
2021/08/03 08:55:24;;;;;;;7.88;3.03;;;;;;;;;;5014814;28;20046;-40
2021/08/03 08:57:51;;;;;;;5.15;2.80;;;;;;;;;;5014991;28;20025;-40
2021/08/03 09:00:19;;;;;;;4.78;2.45;;;;;;;;;;5014078;28;20038;-40
2021/08/03 09:02:47;;;;;;;9.00;2.50;;;;;;;;;;5014486;28;20065;-40
2021/08/03 09:05:16;;;;;;;8.57;2.58;;;;;;;;;;5014527;28;20029;-40
2021/08/03 09:07:50;;;;;;;6.05;2.30;;;;;;;;;;5014780;28;20535;-40
2021/08/03 09:10:35;;;;;;;6.05;2.60;;;;;;;;;;5013512;28;20037;-40
2021/08/03 09:13:11;;;;;;;6.90;2.88;;;;;;;;;;5014505;28;20022;-40
2021/08/03 09:15:40;;;;;;;6.88;2.38;;;;;;;;;;5014071;28;20033;-40
2021/08/03 09:18:16;;;;;;;6.03;2.88;;;;;;;;;;5014677;28;20084;-40
2021/08/03 09:20:44;;;;;;;5.57;2.40;;;;;;;;;;5013960;28;20053;-40
2021/08/03 09:23:11;;;;;;;5.80;2.67;;;;;;;;;;5014461;28;20049;-40
2021/08/03 09:25:39;;;;;;;5.18;2.40;;;;;;;;;;5012374;28;20037;-40
2021/08/03 09:28:07;;;;;;;4.93;2.22;;;;;;;;;;5014435;28;20025;-40
2021/08/03 09:30:35;;;;;;;5.10;2.47;;;;;;;;;;5013531;28;20021;-40
2021/08/03 09:33:03;;;;;;;5.00;2.47;;;;;;;;;;5013963;28;20390;-39
2021/08/03 09:35:31;;;;;;;7.35;2.42;;;;;;;;;;5012537;28;20040;-40
2021/08/03 09:37:58;;;;;;;5.97;2.60;;;;;;;;;;5014197;28;20065;-39
2021/08/03 09:40:27;;;;;;;5.00;3.05;;;;;;;;;;5013063;28;20105;-39
2021/08/03 09:43:13;;;;;;;5.60;2.47;;;;;;;;;;5013634;28;20037;-40
2021/08/03 09:45:43;;;;;;;7.35;2.30;;;;;;;;;;5013672;28;20021;-40
2021/08/03 09:48:20;;;;;;;4.35;2.50;;;;;;;;;;5013771;28;20026;-40
2021/08/03 09:50:54;;;;;;;6.07;2.50;;;;;;;;;;5013043;28;20053;-40
2021/08/03 09:53:40;;;;;;;4.70;2.33;;;;;;;;;;5013630;28;20021;-40
2021/08/03 09:56:07;;;;;;;7.75;2.60;;;;;;;;;;5013216;28;20080;-40
2021/08/03 09:58:34;;;;;;;7.40;2.65;;;;;;;;;;5013546;28;20025;-40
2021/08/03 10:01:24;;;;;;;8.95;2.67;;;;;;;;;;5024975;28;20026;-40
2021/08/03 10:03:52;;;;;;;4.45;2.60;;;;;;;;;;5023757;28;20057;-39
2021/08/03 10:06:19;;;;;;;6.55;2.47;;;;;;;;;;5032073;28;20021;-39
2021/08/03 10:08:50;;;;;;;8.25;2.45;;;;;;;;;;5014628;28;20025;-40
2021/08/03 10:11:18;;;;;;;5.55;2.40;;;;;;;;;;5029825;28;20056;-39
2021/08/03 10:13:45;;;;;;;7.60;2.55;;;;;;;;;;5031695;28;20030;-40
2021/08/03 10:16:13;;;;;;;4.60;2.90;;;;;;;;;;5014605;28;20037;-38
2021/08/03 10:18:41;;;;;;;5.05;2.55;;;;;;;;;;5032170;28;20017;-38
2021/08/03 10:21:17;;;;;;;6.18;2.72;;;;;;;;;;5032349;28;20038;-39
2021/08/03 10:23:44;;;;;;;7.88;2.42;;;;;;;;;;5019525;28;20025;-38
2021/08/03 10:26:13;;;;;;;4.60;2.50;;;;;;;;;;5025209;28;20029;-39
2021/08/03 10:28:40;;;;;;;7.18;2.35;;;;;;;;;;5029181;28;20035;-39
2021/08/03 10:31:27;;;;;;;9.32;2.30;;;;;;;;;;5025280;28;20041;-39
2021/08/03 10:33:54;;;;;;;4.32;2.40;;;;;;;;;;5018471;28;20022;-38
2021/08/03 10:36:39;;;;;;;9.02;2.63;;;;;;;;;;5027407;28;20040;-39
2021/08/03 10:39:12;;;;;;;4.90;2.47;;;;;;;;;;5016178;28;20026;-39
2021/08/03 10:41:58;;;;;;;6.57;2.65;;;;;;;;;;5028914;28;20036;-38
2021/08/03 10:44:40;;;;;;;6.25;2.13;;;;;;;;;;5025045;28;20405;-39
2021/08/03 10:47:27;;;;;;;6.97;2.67;;;;;;;;;;5028051;28;20041;-38
2021/08/03 10:50:08;;;;;;;10.43;2.30;;;;;;;;;;5012941;28;20079;-38
2021/08/03 10:52:48;;;;;;;6.68;2.40;;;;;;;;;;5025418;28;20075;-40
2021/08/03 10:55:34;;;;;;;7.63;2.53;;;;;;;;;;5028614;28;20549;-38
2021/08/03 10:58:09;;;;;;;7.65;3.05;;;;;;;;;;5019039;28;20034;-38
2021/08/03 11:00:55;;;;;;;5.35;2.33;;;;;;;;;;5028818;28;20047;-38
2021/08/03 11:03:32;;;;;;;6.07;2.80;;;;;;;;;;5021088;28;20132;-38
2021/08/03 11:06:18;;;;;;;7.35;2.55;;;;;;;;;;5023146;28;20033;-38
2021/08/03 11:08:45;;;;;;;6.57;2.80;;;;;;;;;;5028283;28;20026;-38
2021/08/03 11:11:14;;;;;;;9.68;2.65;;;;;;;;;;5028050;28;20030;-41
2021/08/03 11:13:42;;;;;;;27.30;2.83;;;;;;;;;;5025579;28;20022;-40
2021/08/03 11:16:12;;;;;;;60.83;4.03;;;;;;;;;;5023791;28;20559;-45
2021/08/03 11:18:43;;;;;;;23.65;3.83;;;;;;;;;;5026027;28;20018;-39
2021/08/03 11:21:14;;;;;;;16.73;2.92;;;;;;;;;;5020374;28;20095;-39
2021/08/03 11:23:55;;;;;;;18.77;2.92;;;;;;;;;;5010519;28;20105;-41
2021/08/03 11:26:23;;;;;;;67.18;4.93;;;;;;;;;;5023686;28;20052;-40
2021/08/03 11:28:59;;;;;;;41.28;8.32;;;;;;;;;;4986788;28;20036;-39
2021/08/03 11:31:45;;;;;;;22.88;5.38;;;;;;;;;;5021452;28;20021;-40
2021/08/03 11:34:13;;;;;;;11.65;3.67;;;;;;;;;;5023277;28;20033;-40
2021/08/03 11:36:53;;;;;;;18.17;3.72;;;;;;;;;;5028823;28;20029;-40
2021/08/03 11:39:23;;;;;;;310.27;21.75;;;;;;;;;;5025751;28;20018;-41
2021/08/03 11:41:51;;;;;;;47.80;6.78;;;;;;;;;;5024510;28;20021;-41
2021/08/03 11:44:19;;;;;;;35.33;5.53;;;;;;;;;;5021234;28;20025;-41
2021/08/03 11:46:47;;;;;;;48.38;6.82;;;;;;;;;;5016165;28;20587;-41
2021/08/03 11:49:14;;;;;;;45.08;7.55;;;;;;;;;;5022005;28;20021;-45
2021/08/03 11:51:45;;;;;;;44.20;8.20;;;;;;;;;;5022718;28;20513;-37
2021/08/03 11:54:13;;;;;;;39.67;9.80;;;;;;;;;;5021186;28;20049;-32
2021/08/03 11:56:40;;;;;;;49.20;11.07;;;;;;;;;;5023836;28;20033;-39
2021/08/03 11:59:08;;;;;;;48.58;9.43;;;;;;;;;;5022575;28;20365;-47
2021/08/03 12:01:53;;;;;;;57.17;10.00;;;;;;;;;;5027930;28;20041;-34
2021/08/03 12:04:25;;;;;;;47.00;10.63;;;;;;;;;;5022291;28;20481;-36
2021/08/03 12:06:53;;;;;;;43.78;8.90;;;;;;;;;;5012419;28;20041;-34
2021/08/03 12:09:21;;;;;;;52.15;9.88;;;;;;;;;;5022763;28;20028;-44
2021/08/03 12:12:01;;;;;;;46.80;9.70;;;;;;;;;;5024632;28;20052;-43
2021/08/03 12:14:35;;;;;;;46.72;9.32;;;;;;;;;;5022598;28;20025;-43
2021/08/03 12:17:04;;;;;;;153.80;14.30;;;;;;;;;;5024831;28;20493;-46
2021/08/03 12:19:33;;;;;;;313.05;30.95;;;;;;;;;;5023231;28;21388;-41
2021/08/03 12:22:02;;;;;;;161.13;16.55;;;;;;;;;;5027865;28;20026;-44
2021/08/03 12:24:30;;;;;;;101.95;11.95;;;;;;;;;;5021221;28;20030;-42
2021/08/03 12:27:13;;;;;;;104.75;11.40;;;;;;;;;;5025383;28;20026;-38
2021/08/03 12:29:40;;;;;;;106.60;12.10;;;;;;;;;;5026011;28;20456;-39
2021/08/03 12:32:07;;;;;;;82.95;10.23;;;;;;;;;;5023827;28;20019;-38
2021/08/03 12:34:38;;;;;;;89.05;11.60;;;;;;;;;;5024527;28;20038;-38
2021/08/03 12:37:06;;;;;;;74.22;11.15;;;;;;;;;;5022476;28;20044;-40
2021/08/03 12:39:41;;;;;;;91.75;10.57;;;;;;;;;;5021996;28;20100;-39
2021/08/03 12:42:24;;;;;;;105.55;10.73;;;;;;;;;;5022974;28;20041;-38
2021/08/03 12:45:01;;;;;;;61.28;9.43;;;;;;;;;;5024375;28;20029;-38
2021/08/03 12:47:29;;;;;;;63.35;8.30;;;;;;;;;;5021231;28;20053;-38
2021/08/03 12:50:06;;;;;;;60.80;8.00;;;;;;;;;;5027169;28;20129;-43
2021/08/03 12:52:33;;;;;;;44.35;6.53;;;;;;;;;;5031529;28;20025;-43
2021/08/03 12:55:09;;;;;;;44.30;7.15;;;;;;;;;;5025344;28;20515;-41
2021/08/03 12:57:46;;;;;;;50.20;6.93;;;;;;;;;;5027988;28;20022;-43
2021/08/03 13:00:29;;;;;;;64.43;8.82;;;;;;;;;;5024580;28;20041;-41
2021/08/03 13:02:56;;;;;;;66.18;7.40;;;;;;;;;;5024901;28;20073;-42
2021/08/03 13:05:23;;;;;;;51.22;7.10;;;;;;;;;;5028217;28;20123;-44
2021/08/03 13:07:50;;;;;;;45.80;7.28;;;;;;;;;;5024635;28;20025;-42
2021/08/03 13:10:17;;;;;;;44.03;6.65;;;;;;;;;;5023585;28;20505;-43
2021/08/03 13:12:44;;;;;;;42.45;7.05;;;;;;;;;;5029052;28;20116;-42
2021/08/03 13:15:12;;;;;;;38.40;7.80;;;;;;;;;;5029023;28;20038;-36
2021/08/03 13:17:39;;;;;;;33.58;8.15;;;;;;;;;;5029053;28;20022;-37
2021/08/03 13:20:07;;;;;;;63.20;9.60;;;;;;;;;;5026955;28;20086;-37
2021/08/03 13:22:35;;;;;;;68.10;9.15;;;;;;;;;;5023920;28;20112;-39
2021/08/03 13:25:03;;;;;;;60.35;9.95;;;;;;;;;;5021589;28;20456;-37
2021/08/03 13:27:30;;;;;;;50.08;8.07;;;;;;;;;;5193935;22;20049;-36
2021/08/03 13:29:58;;;;;;;47.35;7.43;;;;;;;;;;5039351;28;20477;-37
2021/08/03 13:32:25;;;;;;;40.92;7.78;;;;;;;;;;5045376;28;20060;-37
2021/08/03 13:34:52;;;;;;;36.80;7.05;;;;;;;;;;5046337;28;20033;-36
2021/08/03 13:37:21;;;;;;;54.38;7.60;;;;;;;;;;5045587;28;20032;-39
2021/08/03 13:39:52;;;;;;;49.75;7.88;;;;;;;;;;5047187;28;20082;-36
2021/08/03 13:42:20;;;;;;;40.05;7.63;;;;;;;;;;5044033;28;20055;-36
2021/08/03 13:44:48;;;;;;;43.35;7.05;;;;;;;;;;5035086;28;20030;-37
2021/08/03 13:47:18;;;;;;;48.88;6.50;;;;;;;;;;5047124;28;20055;-37
2021/08/03 13:49:47;;;;;;;30.60;6.65;;;;;;;;;;5044998;28;20072;-39
2021/08/03 13:52:15;;;;;;;33.35;6.47;;;;;;;;;;5041505;28;20963;-38
2021/08/03 13:54:42;;;;;;;48.65;7.35;;;;;;;;;;5043133;28;20138;-38
2021/08/03 13:57:09;;;;;;;42.03;7.35;;;;;;;;;;5042324;28;20068;-42
2021/08/03 13:59:36;;;;;;;40.45;6.47;;;;;;;;;;5041257;28;20016;-39
2021/08/03 14:02:05;;;;;;;37.10;7.07;;;;;;;;;;5041979;28;20612;-36
2021/08/03 14:04:33;;;;;;;58.13;6.65;;;;;;;;;;5041549;28;20017;-36
2021/08/03 14:07:01;;;;;;;41.13;6.68;;;;;;;;;;5047873;28;20112;-36
2021/08/03 14:09:28;;;;;;;36.15;6.30;;;;;;;;;;5040816;28;20380;-39
2021/08/03 14:11:56;;;;;;;37.70;6.22;;;;;;;;;;5043382;28;20115;-41
2021/08/03 14:14:23;;;;;;;35.53;6.80;;;;;;;;;;5040868;28;20029;-38
2021/08/03 14:16:52;;;;;;;27.73;7.40;;;;;;;;;;5041938;28;20029;-37
2021/08/03 14:19:19;;;;;;;35.47;6.45;;;;;;;;;;5038098;28;20534;-38
2021/08/03 14:21:49;;;;;;;34.05;6.13;;;;;;;;;;5042411;28;20080;-38
2021/08/03 14:24:18;;;;;;;26.27;5.93;;;;;;;;;;5036735;28;20519;-37
2021/08/03 14:26:45;;;;;;;34.75;6.05;;;;;;;;;;5046973;28;20045;-38
2021/08/03 14:29:12;;;;;;;27.90;5.63;;;;;;;;;;5036805;28;20040;-37
2021/08/03 14:31:40;;;;;;;44.35;7.18;;;;;;;;;;5025150;28;20108;-39
2021/08/03 14:34:08;;;;;;;56.67;9.88;;;;;;;;;;5034022;28;20063;-37
2021/08/03 14:36:35;;;;;;;38.72;6.63;;;;;;;;;;5023238;28;20037;-38
2021/08/03 14:39:02;;;;;;;34.22;6.35;;;;;;;;;;5031433;28;20028;-36
2021/08/03 14:41:29;;;;;;;40.70;6.80;;;;;;;;;;5034285;28;20021;-36
2021/08/03 14:43:58;;;;;;;39.63;6.68;;;;;;;;;;5026413;28;20022;-36
2021/08/03 14:46:26;;;;;;;47.35;8.15;;;;;;;;;;5022696;28;20459;-36
2021/08/03 14:48:53;;;;;;;58.20;8.18;;;;;;;;;;5026244;28;20033;-36
2021/08/03 14:51:21;;;;;;;41.22;7.97;;;;;;;;;;5025270;28;20065;-36